Time;durP1;ratioP1;P1;durP2;ratioP2;P2;SDS_P1;SDS_P2;PMS_P1;PMS_P2;Temp;Humidity;BMP_temperature;BMP_pressure;BME280_temperature;BME280_humidity;BME280_pressure;Samples;Min_cycle;Max_cycle;Signal;HPM_P1;HPM_P2
2021/12/20 00:00:59;;;;;;;3.47;3.17;;;;;;;6.22;83.43;100969.59;5013994;28;20226;-63
2021/12/20 00:03:24;;;;;;;3.77;3.40;;;;;;;6.23;83.15;100974.69;5011952;28;20273;-63
2021/12/20 00:05:50;;;;;;;4.47;4.00;;;;;;;6.14;83.61;100968.06;5046181;28;20722;-63
2021/12/20 00:08:15;;;;;;;4.23;3.83;;;;;;;6.04;83.94;100971.69;5033689;28;20561;-62
2021/12/20 00:10:40;;;;;;;4.43;4.03;;;;;;;6.02;84.79;100970.88;5025771;28;20303;-64
2021/12/20 00:13:05;;;;;;;4.23;3.90;;;;;;;5.94;85.68;100973.56;5052387;28;20184;-62
2021/12/20 00:15:31;;;;;;;4.40;4.00;;;;;;;6.03;85.64;100970.00;5031067;28;20244;-62
2021/12/20 00:17:57;;;;;;;5.30;4.50;;;;;;;6.08;85.36;100960.53;5038330;28;20246;-63
2021/12/20 00:20:22;;;;;;;4.50;4.10;;;;;;;6.05;85.58;100967.41;5042194;28;20304;-64
2021/12/20 00:22:48;;;;;;;5.13;4.67;;;;;;;6.08;85.53;100964.81;5040409;28;20218;-64
2021/12/20 00:25:14;;;;;;;4.97;4.50;;;;;;;5.98;86.19;100971.78;5034208;28;20221;-64
2021/12/20 00:27:40;;;;;;;5.33;4.83;;;;;;;6.05;86.01;100972.53;5034585;28;20184;-64
2021/12/20 00:30:10;;;;;;;5.93;5.00;;;;;;;6.08;85.87;100965.63;5027748;28;20282;-62
2021/12/20 00:32:35;;;;;;;5.50;5.00;;;;;;;5.89;87.05;100954.97;5031802;28;20229;-62
2021/12/20 00:35:02;;;;;;;5.40;4.87;;;;;;;5.97;87.00;100958.16;5032894;28;20246;-62
2021/12/20 00:40:21;;;;;;;5.93;5.33;;;;;;;6.00;87.19;100959.84;5039122;28;20191;-63
2021/12/20 00:42:56;;;;;;;6.00;5.40;;;;;;;6.08;86.96;100952.88;5051970;28;20305;-62
2021/12/20 00:45:23;;;;;;;5.77;5.17;;;;;;;6.04;86.93;100958.94;5034960;28;20346;-63
2021/12/20 00:47:49;;;;;;;6.67;5.23;;;;;;;6.06;87.05;100964.00;5033902;28;20187;-64
2021/12/20 00:50:18;;;;;;;6.53;5.93;;;;;;;5.98;87.40;100959.03;5040123;28;20188;-63
2021/12/20 00:52:44;;;;;;;6.43;5.83;;;;;;;5.93;87.75;100955.75;5051693;28;20207;-64
2021/12/20 00:55:10;;;;;;;6.83;6.13;;;;;;;6.06;87.39;100961.44;5051643;28;20217;-62
2021/12/20 00:57:35;;;;;;;6.93;6.17;;;;;;;5.97;87.74;100957.34;5050642;28;20704;-63
2021/12/20 01:00:01;;;;;;;6.57;5.80;;;;;;;5.81;88.37;100951.72;5033538;28;20270;-62
2021/12/20 01:02:26;;;;;;;6.43;5.67;;;;;;;5.87;88.48;100961.81;5030921;28;20620;-63
2021/12/20 01:04:51;;;;;;;6.10;5.50;;;;;;;5.83;88.71;100960.19;5047772;28;20179;-62
2021/12/20 01:07:17;;;;;;;8.03;5.90;;;;;;;5.65;89.20;100961.41;5040780;28;20224;-62
2021/12/20 01:09:42;;;;;;;6.77;6.00;;;;;;;5.68;89.41;100953.69;5052449;28;20566;-62
2021/12/20 01:12:15;;;;;;;6.80;5.90;;;;;;;5.73;89.89;100949.34;5008862;28;20595;-62
2021/12/20 01:14:40;;;;;;;6.10;5.20;;;;;;;5.79;89.64;100948.34;5037473;28;20556;-63
2021/12/20 01:17:06;;;;;;;6.83;5.80;;;;;;;5.87;89.13;100950.75;5050308;28;20197;-62
2021/12/20 01:19:33;;;;;;;7.00;5.80;;;;;;;5.85;88.54;100955.06;5036633;28;20207;-62
2021/12/20 01:21:59;;;;;;;6.40;5.80;;;;;;;5.80;88.76;100950.03;5034648;28;20285;-62
2021/12/20 01:24:24;;;;;;;5.90;5.17;;;;;;;5.88;88.46;100957.53;5051222;28;20208;-63
2021/12/20 01:26:50;;;;;;;6.53;5.70;;;;;;;5.86;88.31;100951.63;5048121;28;20218;-64
2021/12/20 01:29:15;;;;;;;7.17;5.50;;;;;;;5.84;87.96;100959.28;5031982;28;20327;-63
2021/12/20 01:31:41;;;;;;;7.73;6.23;;;;;;;5.95;87.78;100946.31;5022120;28;20307;-63
2021/12/20 01:34:06;;;;;;;5.97;5.37;;;;;;;5.98;87.43;100956.47;5048047;28;20176;-63
2021/12/20 01:36:34;;;;;;;6.67;5.97;;;;;;;5.87;87.74;100956.69;5051973;28;20187;-63
2021/12/20 01:38:59;;;;;;;7.63;5.80;;;;;;;5.97;87.89;100960.72;5050590;28;20232;-62
2021/12/20 01:41:25;;;;;;;6.40;5.70;;;;;;;5.98;87.78;100957.34;5035076;28;20223;-63
2021/12/20 01:43:50;;;;;;;6.13;5.53;;;;;;;5.99;87.70;100958.16;5031593;28;20642;-63
2021/12/20 01:46:16;;;;;;;6.77;5.43;;;;;;;5.93;87.45;100955.75;5050416;28;20287;-62
2021/12/20 01:48:43;;;;;;;6.20;5.57;;;;;;;5.88;88.05;100950.72;5049807;28;20218;-62
2021/12/20 01:53:44;;;;;;;8.07;5.27;;;;;;;5.87;88.31;100950.75;5039054;28;20548;-63
2021/12/20 01:56:10;;;;;;;6.90;5.67;;;;;;;5.89;88.46;100947.31;5031444;28;20303;-62
2021/12/20 01:58:36;;;;;;;6.80;5.80;;;;;;;5.97;88.14;100955.63;5031397;28;20186;-63
2021/12/20 02:03:38;;;;;;;6.40;5.50;;;;;;;6.00;87.96;100948.81;5031284;28;20276;-62
2021/12/20 02:06:07;;;;;;;6.40;5.37;;;;;;;5.97;87.83;100950.50;5031560;28;20223;-63
2021/12/20 02:08:33;;;;;;;8.53;5.73;;;;;;;6.03;87.94;100943.63;5046537;28;20183;-63
2021/12/20 02:11:03;;;;;;;5.73;5.13;;;;;;;5.98;88.00;100953.91;5032591;28;20474;-63
2021/12/20 02:13:29;;;;;;;5.97;5.37;;;;;;;6.00;87.89;100941.97;5030626;28;20200;-62
2021/12/20 02:15:59;;;;;;;6.00;5.40;;;;;;;6.00;87.61;100939.41;5041004;28;20644;-63
2021/12/20 02:18:26;;;;;;;6.13;5.47;;;;;;;5.98;87.72;100951.38;5028027;28;20619;-63
2021/12/20 02:20:52;;;;;;;6.60;5.17;;;;;;;5.90;88.08;100948.13;5013201;28;20709;-62
2021/12/20 02:23:17;;;;;;;8.10;5.50;;;;;;;5.91;87.90;100957.47;5007379;28;20186;-62
2021/12/20 02:25:43;;;;;;;6.67;5.57;;;;;;;5.76;88.42;100951.81;5011280;28;20211;-62
2021/12/20 02:28:10;;;;;;;6.27;5.47;;;;;;;5.66;89.30;100952.88;5011536;28;20229;-62
2021/12/20 02:30:45;;;;;;;7.03;5.73;;;;;;;5.75;89.21;100941.63;5011020;28;20233;-63
2021/12/20 02:38:40;;;;;;;6.93;6.23;;;;;;;5.82;88.71;100950.84;5047318;28;20244;-62
2021/12/20 02:41:12;;;;;;;8.67;6.33;;;;;;;5.75;88.95;100950.13;5023398;28;20215;-62
2021/12/20 02:43:46;;;;;;;7.13;6.43;;;;;;;5.76;89.00;100949.25;5030046;28;20194;-61
2021/12/20 02:48:53;;;;;;;6.60;5.80;;;;;;;5.78;88.59;100939.84;5040963;28;20571;-62
2021/12/20 02:51:18;;;;;;;8.77;6.10;;;;;;;5.78;88.81;100937.31;5020875;28;20262;-61
2021/12/20 02:53:43;;;;;;;7.20;6.33;;;;;;;5.75;88.49;100939.91;5029840;28;20203;-61
2021/12/20 02:56:09;;;;;;;6.80;5.97;;;;;;;5.79;88.40;100948.34;5038071;28;20250;-61
2021/12/20 02:58:34;;;;;;;7.77;6.17;;;;;;;5.89;87.85;100946.44;5035035;28;20244;-62
2021/12/20 03:00:59;;;;;;;6.67;5.97;;;;;;;5.95;87.53;100943.75;5026905;28;20728;-61
2021/12/20 03:03:26;;;;;;;7.30;5.90;;;;;;;5.96;87.03;100950.53;5045814;28;20177;-64
2021/12/20 03:05:52;;;;;;;6.40;5.80;;;;;;;5.96;86.88;100950.53;5045390;28;20656;-62
2021/12/20 03:08:21;;;;;;;5.77;5.20;;;;;;;5.86;86.70;100947.34;5030417;28;20233;-63
2021/12/20 03:10:46;;;;;;;6.17;5.57;;;;;;;5.85;87.28;100945.66;5038926;28;20264;-63
2021/12/20 03:13:13;;;;;;;6.30;5.23;;;;;;;5.85;87.30;100949.94;5047624;28;20532;-63
2021/12/20 03:15:38;;;;;;;7.23;6.23;;;;;;;5.73;87.40;100940.81;5049549;28;20199;-62
2021/12/20 03:18:04;;;;;;;8.10;6.27;;;;;;;5.78;87.58;100937.31;5050045;28;20190;-63
2021/12/20 03:20:29;;;;;;;10.63;6.00;;;;;;;5.81;87.63;100942.34;5026884;28;20233;-63
2021/12/20 03:22:55;;;;;;;6.10;5.50;;;;;;;5.73;87.52;100940.81;5033454;28;20195;-63
2021/12/20 03:25:21;;;;;;;7.33;5.83;;;;;;;5.73;87.71;100934.00;5033072;28;20195;-63
2021/12/20 03:27:46;;;;;;;6.83;5.80;;;;;;;5.79;87.25;100936.44;5030155;28;20184;-63
2021/12/20 03:30:13;;;;;;;7.73;5.83;;;;;;;5.81;87.25;100936.41;5029552;28;20659;-63
2021/12/20 03:32:39;;;;;;;6.93;5.20;;;;;;;5.86;87.01;100938.88;5040084;28;20207;-63
2021/12/20 03:35:06;;;;;;;7.60;5.97;;;;;;;5.68;86.76;100940.06;5039913;28;20708;-64
2021/12/20 03:37:31;;;;;;;7.93;5.10;;;;;;;5.73;87.03;100935.72;5050007;28;20225;-63
2021/12/20 03:39:57;;;;;;;6.43;4.63;;;;;;;5.71;87.06;100933.19;5033650;28;20186;-63
2021/12/20 03:42:22;;;;;;;6.60;5.40;;;;;;;5.66;87.15;100928.19;5028223;28;20218;-63
2021/12/20 03:44:48;;;;;;;7.97;4.77;;;;;;;5.69;87.20;100929.81;5034553;28;20189;-63
2021/12/20 03:47:14;;;;;;;6.87;5.03;;;;;;;5.67;86.71;100934.16;5032687;28;20269;-63
2021/12/20 03:49:41;;;;;;;5.77;4.60;;;;;;;5.71;86.55;100927.25;5032911;28;20173;-64
2021/12/20 03:52:08;;;;;;;6.43;4.33;;;;;;;5.70;86.29;100938.34;5038501;28;20226;-63
2021/12/20 03:54:34;;;;;;;5.67;4.33;;;;;;;5.68;86.35;100929.88;5033970;28;20667;-63
2021/12/20 03:57:00;;;;;;;8.47;4.93;;;;;;;5.63;86.41;100938.47;5045927;28;20202;-63
2021/12/20 03:59:26;;;;;;;6.10;4.53;;;;;;;5.66;85.98;100923.06;5048218;28;20171;-64
2021/12/20 04:01:52;;;;;;;9.00;4.90;;;;;;;5.69;85.64;100924.72;5003326;28;20272;-63
2021/12/20 04:04:17;;;;;;;8.00;4.40;;;;;;;5.60;85.68;100930.03;5047076;28;20211;-63
2021/12/20 04:06:42;;;;;;;8.17;4.33;;;;;;;5.65;85.13;100929.03;5035633;28;20830;-64
2021/12/20 04:09:08;;;;;;;7.27;4.23;;;;;;;5.73;85.16;100928.06;5034574;28;20640;-63
2021/12/20 04:11:33;;;;;;;7.60;4.53;;;;;;;5.81;84.53;100934.66;5038401;28;20233;-62
2021/12/20 04:13:59;;;;;;;6.77;4.27;;;;;;;5.79;83.96;100930.47;5034362;28;20188;-62
2021/12/20 04:16:24;;;;;;;7.70;3.87;;;;;;;5.54;84.34;100923.31;5020114;28;20704;-63
2021/12/20 04:18:50;;;;;;;11.60;4.27;;;;;;;5.58;84.77;100924.09;5029597;28;20697;-63
2021/12/20 04:21:15;;;;;;;5.73;3.70;;;;;;;5.61;84.40;100924.88;5038082;28;20526;-62
2021/12/20 04:23:41;;;;;;;10.87;3.90;;;;;;;5.58;83.19;100922.41;5047343;28;20609;-63
2021/12/20 04:26:06;;;;;;;6.93;3.73;;;;;;;5.60;82.53;100932.59;5048707;28;20275;-63
2021/12/20 04:28:31;;;;;;;7.37;3.83;;;;;;;5.59;82.62;100933.44;5032960;28;20556;-63
2021/12/20 04:30:57;;;;;;;4.57;3.37;;;;;;;5.62;82.19;100936.78;5003688;28;20223;-63
2021/12/20 04:33:22;;;;;;;7.93;4.03;;;;;;;5.71;81.76;100934.91;5048258;28;20181;-64
2021/12/20 04:35:48;;;;;;;8.37;3.63;;;;;;;5.53;81.84;100934.41;5037318;28;20194;-62
2021/12/20 04:38:13;;;;;;;5.50;3.23;;;;;;;5.56;81.48;100938.63;5034260;28;20261;-63
2021/12/20 04:40:39;;;;;;;7.93;3.87;;;;;;;5.65;81.14;100936.69;5022507;28;20217;-63
2021/12/20 04:43:05;;;;;;;7.33;3.27;;;;;;;5.46;80.55;100931.16;5040064;28;20228;-63
2021/12/20 04:45:31;;;;;;;7.10;2.80;;;;;;;5.48;80.10;100937.06;5050469;28;20204;-63
2021/12/20 04:47:57;;;;;;;7.03;2.97;;;;;;;5.41;80.13;100943.16;5034105;28;20180;-62
2021/12/20 04:50:23;;;;;;;5.00;2.30;;;;;;;5.20;79.67;100939.31;5022865;28;20220;-62
2021/12/20 04:52:49;;;;;;;5.67;2.87;;;;;;;5.15;79.73;100934.28;5031701;28;20197;-62
2021/12/20 04:55:14;;;;;;;8.60;3.10;;;;;;;5.10;80.00;100946.28;5033128;28;20177;-61
2021/12/20 04:57:41;;;;;;;3.13;2.37;;;;;;;5.28;80.12;100952.78;5052391;28;20183;-64
2021/12/20 05:00:11;;;;;;;9.00;2.80;;;;;;;5.40;79.71;100949.13;5028471;28;20257;-64
2021/12/20 05:02:37;;;;;;;4.00;2.70;;;;;;;5.47;79.17;100943.03;5035344;28;20175;-62
2021/12/20 05:05:03;;;;;;;9.23;2.90;;;;;;;5.41;78.91;100949.94;5032345;28;20269;-62
2021/12/20 05:07:29;;;;;;;6.73;2.63;;;;;;;5.41;78.90;100958.47;5048757;28;20632;-62
2021/12/20 05:10:01;;;;;;;4.67;2.57;;;;;;;5.45;78.67;100954.16;5050734;28;20213;-63
2021/12/20 05:12:26;;;;;;;9.60;3.20;;;;;;;5.45;78.23;100954.97;5040334;28;20294;-63
2021/12/20 05:14:51;;;;;;;6.43;3.33;;;;;;;5.44;77.91;100947.34;5040651;28;20812;-63
2021/12/20 05:17:17;;;;;;;7.60;2.77;;;;;;;5.58;77.36;100947.94;5035549;28;20200;-64
2021/12/20 05:19:42;;;;;;;6.47;2.60;;;;;;;5.47;76.82;100953.25;5020565;28;20184;-64
2021/12/20 05:22:09;;;;;;;7.47;2.77;;;;;;;5.52;76.89;100950.63;4995651;28;20706;-64
2021/12/20 05:24:35;;;;;;;8.23;2.53;;;;;;;5.62;76.81;100953.81;5029783;28;20261;-63
2021/12/20 05:27:00;;;;;;;7.73;2.90;;;;;;;5.69;76.87;100954.53;5016883;28;20543;-63
2021/12/20 05:29:26;;;;;;;8.40;3.27;;;;;;;5.69;75.55;100950.25;5013658;28;20306;-64
2021/12/20 05:31:53;;;;;;;6.90;3.10;;;;;;;5.58;75.67;100949.63;5026798;28;20641;-62
2021/12/20 05:34:18;;;;;;;7.50;2.90;;;;;;;5.37;76.60;100963.66;5033337;28;20183;-63
2021/12/20 05:36:44;;;;;;;7.97;3.20;;;;;;;5.15;77.96;100964.88;5031246;28;20565;-62
2021/12/20 05:39:09;;;;;;;8.97;3.00;;;;;;;4.99;79.83;100960.94;5032059;28;20167;-61
2021/12/20 05:41:35;;;;;;;5.93;3.17;;;;;;;5.00;80.56;100968.56;5019200;28;20695;-61
2021/12/20 05:44:00;;;;;;;10.37;2.77;;;;;;;4.91;81.30;100967.88;5031698;28;20178;-63
2021/12/20 05:46:25;;;;;;;6.27;3.10;;;;;;;4.82;81.91;100987.53;5039338;28;20201;-61
2021/12/20 05:48:51;;;;;;;6.80;2.90;;;;;;;4.71;82.60;100986.88;5051355;28;20639;-63
2021/12/20 05:51:16;;;;;;;7.83;3.10;;;;;;;4.65;83.68;100986.97;5028799;28;20259;-63
2021/12/20 05:53:42;;;;;;;12.53;3.40;;;;;;;4.42;85.42;100993.28;5047355;28;20187;-63
2021/12/20 05:56:07;;;;;;;7.80;3.20;;;;;;;4.13;89.25;100998.75;5041019;28;20202;-63
2021/12/20 05:58:32;;;;;;;10.13;3.07;;;;;;;3.83;93.60;100999.16;5031642;28;20288;-63
2021/12/20 06:00:58;;;;;;;11.67;3.67;;;;;;;3.79;97.01;101015.31;5020782;28;20225;-63
2021/12/20 06:03:23;;;;;;;10.57;3.93;;;;;;;3.74;98.96;101011.16;5023464;28;20190;-63
2021/12/20 06:05:49;;;;;;;9.47;3.83;;;;;;;3.70;100.00;101007.78;5000936;28;20189;-63
2021/12/20 06:08:14;;;;;;;12.77;4.07;;;;;;;3.59;100.00;101014.72;5031614;28;20185;-62
2021/12/20 06:10:39;;;;;;;11.20;4.30;;;;;;;3.58;100.00;101015.56;5019877;28;20233;-61
2021/12/20 06:13:05;;;;;;;10.27;4.20;;;;;;;3.70;100.00;101016.25;5031670;28;20201;-61
2021/12/20 06:15:31;;;;;;;15.23;4.10;;;;;;;3.71;100.00;101015.41;5032721;28;20218;-61
2021/12/20 06:17:57;;;;;;;14.97;3.87;;;;;;;3.73;100.00;101017.91;5044340;28;20205;-61
2021/12/20 06:20:23;;;;;;;12.13;4.57;;;;;;;3.86;100.00;101019.47;5040288;28;20356;-61
2021/12/20 06:22:48;;;;;;;18.30;4.43;;;;;;;3.84;100.00;101017.81;5037398;28;20182;-62
2021/12/20 06:25:15;;;;;;;13.30;4.20;;;;;;;3.91;100.00;101018.56;5032481;28;20178;-63
2021/12/20 06:27:41;;;;;;;12.73;4.23;;;;;;;4.01;100.00;101025.25;5038808;28;20264;-62
2021/12/20 06:30:11;;;;;;;10.83;4.67;;;;;;;4.04;100.00;101027.72;5033407;28;20727;-62
2021/12/20 06:32:38;;;;;;;11.57;4.53;;;;;;;4.07;100.00;101027.72;5046830;28;20205;-62
2021/12/20 06:35:04;;;;;;;18.13;4.90;;;;;;;4.13;100.00;101026.78;5030566;28;20213;-62
2021/12/20 06:37:31;;;;;;;13.37;4.37;;;;;;;4.19;100.00;101035.19;5031564;28;20210;-62
2021/12/20 06:39:56;;;;;;;13.53;4.93;;;;;;;4.15;100.00;101038.63;5013026;28;20181;-63
2021/12/20 06:42:21;;;;;;;16.30;4.23;;;;;;;4.07;100.00;101037.91;5029931;28;20213;-62
2021/12/20 06:44:47;;;;;;;14.20;4.73;;;;;;;4.08;100.00;101031.09;5050356;28;20196;-62
2021/12/20 06:47:12;;;;;;;15.50;4.47;;;;;;;3.97;100.00;101039.72;5035167;28;20198;-62
2021/12/20 06:49:38;;;;;;;18.47;4.90;;;;;;;3.74;100.00;101039.97;5032462;28;20173;-61
2021/12/20 06:52:03;;;;;;;8.27;3.77;;;;;;;3.87;100.00;101043.22;5024397;28;20242;-61
2021/12/20 06:54:29;;;;;;;11.60;4.33;;;;;;;3.97;100.00;101055.00;5031371;28;20181;-62
2021/12/20 06:56:54;;;;;;;12.33;4.50;;;;;;;3.84;100.00;101048.34;5012769;28;20193;-62
2021/12/20 06:59:20;;;;;;;9.47;4.30;;;;;;;3.77;100.00;101051.81;5044620;28;20181;-62
2021/12/20 07:01:45;;;;;;;12.83;4.50;;;;;;;3.84;100.00;101054.25;5020220;28;20225;-62
2021/12/20 07:04:12;;;;;;;11.60;4.57;;;;;;;3.66;100.00;101046.84;5049007;28;20204;-62
2021/12/20 07:06:38;;;;;;;16.60;4.70;;;;;;;3.64;100.00;101046.03;5042937;28;20252;-61
2021/12/20 07:09:03;;;;;;;17.53;4.80;;;;;;;3.69;100.00;101049.34;5030372;28;20937;-61
2021/12/20 07:11:28;;;;;;;19.50;4.40;;;;;;;3.63;100.00;101049.44;5009595;28;20714;-62
2021/12/20 07:13:54;;;;;;;16.30;5.07;;;;;;;3.41;100.00;101049.63;5009958;28;20695;-61
2021/12/20 07:16:20;;;;;;;16.93;4.93;;;;;;;3.35;100.00;101050.53;5011556;28;20199;-62
2021/12/20 07:18:46;;;;;;;12.33;4.53;;;;;;;3.36;100.00;101053.91;5010442;28;20239;-62
2021/12/20 07:21:12;;;;;;;22.93;8.90;;;;;;;3.25;100.00;101059.13;4992772;28;20309;-61
2021/12/20 07:23:37;;;;;;;14.17;4.40;;;;;;;3.17;100.00;101050.72;5009531;28;20734;-63
2021/12/20 07:26:04;;;;;;;21.23;4.57;;;;;;;3.04;100.00;101055.88;5017557;28;20202;-62
2021/12/20 07:28:29;;;;;;;17.87;5.13;;;;;;;3.00;100.00;101054.25;5011592;28;20190;-62
2021/12/20 07:30:54;;;;;;;14.07;4.33;;;;;;;3.00;100.00;101056.78;5020785;28;20315;-61
2021/12/20 07:33:20;;;;;;;16.40;4.07;;;;;;;3.05;100.00;101065.22;5030933;28;20174;-62
2021/12/20 07:35:46;;;;;;;15.37;4.67;;;;;;;2.94;100.00;101063.59;5013781;28;20209;-63
2021/12/20 07:38:14;;;;;;;13.10;4.70;;;;;;;2.99;100.00;101065.25;5018860;28;20232;-62
2021/12/20 07:40:47;;;;;;;11.87;4.20;;;;;;;2.87;100.00;101061.09;5005366;28;20229;-63
2021/12/20 07:43:15;;;;;;;21.20;4.30;;;;;;;2.70;100.00;101063.75;5012240;28;20203;-62
2021/12/20 07:45:47;;;;;;;14.13;3.93;;;;;;;2.65;100.00;101067.19;5024953;28;20676;-63
2021/12/20 07:48:17;;;;;;;13.77;3.60;;;;;;;2.65;100.00;101069.72;5030210;28;20207;-62
2021/12/20 07:50:44;;;;;;;14.90;4.47;;;;;;;2.55;100.00;101076.53;5031865;28;20222;-62
2021/12/20 07:53:09;;;;;;;15.67;3.97;;;;;;;2.52;100.00;101066.41;5048835;28;20206;-62
2021/12/20 07:55:35;;;;;;;14.50;4.10;;;;;;;2.53;100.00;101081.66;5048970;28;20208;-63
2021/12/20 07:58:00;;;;;;;16.93;3.97;;;;;;;2.54;100.00;101077.41;5049665;28;20178;-62
2021/12/20 08:00:26;;;;;;;13.83;4.27;;;;;;;2.56;100.00;101084.16;5020172;28;20309;-62
2021/12/20 08:02:52;;;;;;;21.53;4.47;;;;;;;2.58;100.00;101084.16;5030990;28;20180;-62
2021/12/20 08:05:19;;;;;;;13.60;4.23;;;;;;;2.57;100.00;101090.09;5047323;28;20283;-63
2021/12/20 08:07:46;;;;;;;14.87;4.10;;;;;;;2.56;100.00;101085.88;5049544;28;20166;-63
2021/12/20 08:10:12;;;;;;;24.90;4.90;;;;;;;2.57;100.00;101092.63;5041171;28;20182;-63
2021/12/20 08:12:37;;;;;;;19.07;4.47;;;;;;;2.57;100.00;101097.72;5040128;28;20195;-62
2021/12/20 08:15:03;;;;;;;19.37;3.90;;;;;;;2.55;99.82;101091.78;5026145;28;20640;-62
2021/12/20 08:17:31;;;;;;;14.97;3.67;;;;;;;2.56;100.00;101093.47;5020896;28;20195;-63
2021/12/20 08:19:57;;;;;;;23.67;4.03;;;;;;;2.55;100.00;101102.78;5015476;28;20506;-62
2021/12/20 08:22:25;;;;;;;19.97;4.30;;;;;;;2.55;98.83;101100.25;5031683;28;20224;-62
2021/12/20 08:24:50;;;;;;;22.37;4.73;;;;;;;2.60;99.08;101100.22;5034158;28;20172;-62
2021/12/20 08:27:15;;;;;;;16.50;4.00;;;;;;;2.68;99.27;101106.13;5033185;28;20200;-62
2021/12/20 08:29:41;;;;;;;19.50;3.87;;;;;;;2.63;97.73;101104.44;5034191;28;20176;-62
2021/12/20 08:32:06;;;;;;;16.07;5.00;;;;;;;2.67;98.19;101106.97;5002175;28;20256;-63
2021/12/20 08:34:32;;;;;;;17.57;4.77;;;;;;;2.66;97.65;101101.91;5041401;28;20200;-62
2021/12/20 08:36:58;;;;;;;20.13;5.30;;;;;;;2.67;97.79;101101.88;5033178;28;20269;-62
2021/12/20 08:39:23;;;;;;;18.07;4.13;;;;;;;2.61;96.61;101109.53;5032833;28;20725;-62
2021/12/20 08:41:49;;;;;;;20.77;4.30;;;;;;;2.59;97.24;101106.16;5033870;28;20223;-63
2021/12/20 08:44:14;;;;;;;17.93;4.53;;;;;;;2.66;96.79;101112.91;5050233;28;20178;-62
2021/12/20 08:46:40;;;;;;;20.63;6.30;;;;;;;2.64;95.68;101111.22;5045183;28;20203;-61
2021/12/20 08:49:06;;;;;;;22.13;5.33;;;;;;;2.67;95.71;101111.22;5040800;28;20235;-62
2021/12/20 08:51:32;;;;;;;14.53;4.30;;;;;;;2.84;94.78;101111.09;5031640;28;20337;-61
2021/12/20 08:53:57;;;;;;;22.87;5.07;;;;;;;2.93;94.05;101115.28;5051850;28;20660;-61
2021/12/20 08:56:22;;;;;;;15.57;4.50;;;;;;;3.43;91.66;101121.69;5034133;28;20293;-61
2021/12/20 08:58:48;;;;;;;17.87;4.53;;;;;;;4.07;86.53;101116.84;5041680;28;20656;-62
2021/12/20 09:01:14;;;;;;;17.70;3.90;;;;;;;4.78;83.82;101122.75;5033558;28;20548;-62
2021/12/20 09:03:39;;;;;;;14.77;4.00;;;;;;;5.17;79.75;101111.09;5031756;28;20545;-64
2021/12/20 09:06:05;;;;;;;20.10;4.93;;;;;;;5.33;77.27;101111.69;5048064;28;20279;-64
2021/12/20 09:08:31;;;;;;;15.17;4.27;;;;;;;6.01;73.81;101121.63;5033305;28;20216;-62
2021/12/20 09:10:57;;;;;;;11.70;3.73;;;;;;;6.34;71.57;101122.66;5017739;28;20582;-62
2021/12/20 09:13:23;;;;;;;9.73;3.27;;;;;;;6.10;73.56;101123.97;5046045;28;20267;-65
2021/12/20 09:15:48;;;;;;;14.87;4.43;;;;;;;7.51;68.59;101118.31;5036058;28;20193;-63
2021/12/20 09:18:14;;;;;;;12.40;4.10;;;;;;;7.54;65.61;101121.63;5050314;28;20207;-62
2021/12/20 09:20:40;;;;;;;12.07;4.00;;;;;;;6.31;68.55;101130.38;5038823;28;20257;-62
2021/12/20 09:23:08;;;;;;;13.53;4.00;;;;;;;5.22;72.47;101136.56;5027665;28;20175;-63
2021/12/20 09:25:36;;;;;;;16.20;3.80;;;;;;;4.81;75.00;101136.28;5048548;28;20299;-63
2021/12/20 09:28:04;;;;;;;13.60;4.20;;;;;;;4.55;76.69;101148.53;5033267;28;20249;-63
2021/12/20 09:30:31;;;;;;;17.27;3.90;;;;;;;4.05;79.22;101144.00;5040126;28;20285;-62
2021/12/20 09:32:57;;;;;;;19.73;4.20;;;;;;;3.90;81.08;101147.56;5050297;28;20278;-62
2021/12/20 09:35:22;;;;;;;13.40;3.67;;;;;;;3.72;82.16;101146.00;5032763;28;20611;-62
2021/12/20 09:37:51;;;;;;;28.67;4.40;;;;;;;3.49;83.35;101153.88;5031966;28;20171;-62
2021/12/20 09:40:20;;;;;;;15.73;3.60;;;;;;;3.57;84.26;101149.53;5022822;28;20681;-62
2021/12/20 09:42:51;;;;;;;20.07;3.97;;;;;;;3.48;84.13;101149.63;5029476;28;20257;-62
2021/12/20 09:45:18;;;;;;;15.03;4.17;;;;;;;3.40;84.16;101152.25;5051274;28;20269;-62
2021/12/20 09:47:44;;;;;;;10.37;3.87;;;;;;;3.50;84.20;101158.94;5043401;28;20181;-61
2021/12/20 09:50:11;;;;;;;17.50;4.77;;;;;;;3.62;84.26;101158.00;5023525;28;20177;-62
2021/12/20 09:52:37;;;;;;;17.57;4.93;;;;;;;4.26;81.98;101155.66;5037751;28;20204;-62
2021/12/20 09:55:02;;;;;;;16.57;4.60;;;;;;;5.29;76.10;101163.63;5043173;28;20264;-64
2021/12/20 09:57:31;;;;;;;16.10;3.70;;;;;;;6.53;69.75;101153.78;5036929;28;20276;-62
2021/12/20 09:59:58;;;;;;;10.50;3.60;;;;;;;7.84;63.89;101147.31;5031513;28;20211;-62
2021/12/20 10:02:23;;;;;;;13.27;3.83;;;;;;;7.70;62.22;101150.25;5013256;28;20699;-63
2021/12/20 10:04:48;;;;;;;11.27;4.13;;;;;;;6.35;65.90;101143.94;5027736;28;20198;-62
2021/12/20 10:07:19;;;;;;;10.57;3.90;;;;;;;5.85;68.21;101149.94;5012585;28;20205;-62
2021/12/20 10:09:47;;;;;;;16.43;3.87;;;;;;;4.84;71.72;101155.81;5024352;28;20193;-62
2021/12/20 10:12:23;;;;;;;18.80;4.13;;;;;;;4.29;74.17;101162.41;5036131;28;20267;-62
2021/12/20 10:15:08;;;;;;;11.13;3.73;;;;;;;4.10;75.00;101161.78;5037555;28;20280;-62
2021/12/20 10:17:54;;;;;;;12.80;3.60;;;;;;;3.88;74.92;101150.13;5045432;28;20270;-62
2021/12/20 10:20:26;;;;;;;11.77;3.73;;;;;;;3.79;75.01;101157.81;5040353;28;20650;-62
2021/12/20 10:22:52;;;;;;;11.83;3.63;;;;;;;3.67;74.59;101151.16;5021737;28;20182;-62
2021/12/20 10:25:24;;;;;;;9.47;3.30;;;;;;;3.71;75.02;101155.38;5038668;28;20185;-62
2021/12/20 10:27:49;;;;;;;15.33;3.40;;;;;;;3.65;74.20;101155.41;5032352;28;20539;-62
2021/12/20 10:30:26;;;;;;;13.47;3.50;;;;;;;3.66;75.34;101136.75;5040567;28;20196;-61
2021/12/20 10:32:52;;;;;;;11.20;3.57;;;;;;;3.78;75.90;101153.59;5037239;28;20578;-61
2021/12/20 10:35:49;;;;;;;9.33;3.00;;;;;;;3.69;74.97;101140.97;5049953;28;20641;-62
2021/12/20 10:38:17;;;;;;;10.47;3.10;;;;;;;3.66;74.23;101136.75;5037090;28;20197;-62
2021/12/20 10:40:51;;;;;;;9.97;3.43;;;;;;;3.65;73.76;101126.59;5023850;28;20220;-62
2021/12/20 10:43:21;;;;;;;13.00;3.77;;;;;;;3.62;73.44;101129.16;5031061;28;20180;-62
2021/12/20 10:45:46;;;;;;;13.00;3.10;;;;;;;3.64;73.78;101123.19;5036837;28;20250;-62
2021/12/20 10:48:12;;;;;;;12.60;3.43;;;;;;;3.70;73.43;101132.47;5035902;28;20173;-62
2021/12/20 10:50:42;;;;;;;15.37;2.93;;;;;;;3.68;71.76;101134.19;5038412;28;20643;-61
2021/12/20 10:53:25;;;;;;;10.53;2.90;;;;;;;3.71;72.28;101127.38;5043858;28;20233;-62
2021/12/20 10:55:55;;;;;;;10.43;4.03;;;;;;;3.70;71.24;101127.41;5044725;28;20196;-61
2021/12/20 10:58:20;;;;;;;10.50;4.87;;;;;;;3.77;70.98;101134.13;5049030;28;20348;-62
2021/12/20 11:01:21;;;;;;;10.40;2.97;;;;;;;3.77;71.39;101136.66;5036092;28;20311;-62
2021/12/20 11:03:56;;;;;;;13.60;2.80;;;;;;;3.86;68.84;101134.00;5027017;28;20172;-64
2021/12/20 11:09:06;;;;;;;8.70;3.03;;;;;;;3.79;67.81;101134.09;5041573;28;20203;-61
2021/12/20 11:11:40;;;;;;;7.67;2.47;;;;;;;3.79;67.93;101134.91;5039111;28;20225;-62
2021/12/20 11:14:06;;;;;;;6.47;2.47;;;;;;;3.76;67.46;101134.09;5033310;28;20182;-61
2021/12/20 11:16:43;;;;;;;5.90;3.03;;;;;;;3.77;63.59;101128.16;5030202;28;20198;-62
2021/12/20 11:19:08;;;;;;;7.13;2.40;;;;;;;3.75;63.04;101122.25;5030438;28;20181;-62
2021/12/20 11:21:35;;;;;;;12.63;2.80;;;;;;;3.78;63.85;101123.06;5020636;28;21095;-62
2021/12/20 11:24:00;;;;;;;9.73;2.53;;;;;;;3.78;63.73;101120.50;5009699;28;20189;-62
2021/12/20 11:26:29;;;;;;;9.53;3.10;;;;;;;3.80;63.05;101113.72;5017042;28;20186;-63
2021/12/20 11:28:56;;;;;;;10.93;2.67;;;;;;;3.91;63.51;101118.69;5038246;28;20189;-62
2021/12/20 11:31:21;;;;;;;9.73;2.33;;;;;;;3.94;63.43;101118.66;5038670;28;20232;-62
2021/12/20 11:33:48;;;;;;;8.57;2.67;;;;;;;3.97;61.87;101125.41;5029991;28;20170;-62
2021/12/20 11:36:13;;;;;;;8.20;2.27;;;;;;;4.02;60.75;101116.03;5031122;28;20185;-61
2021/12/20 11:38:39;;;;;;;8.17;2.10;;;;;;;4.07;59.86;101113.44;5030536;28;20177;-62
2021/12/20 11:41:05;;;;;;;3.73;1.53;;;;;;;4.07;56.29;101114.28;4997861;28;20715;-62
2021/12/20 11:43:31;;;;;;;4.60;1.87;;;;;;;4.05;57.57;101110.91;5022071;28;20185;-62
2021/12/20 11:45:58;;;;;;;6.60;1.97;;;;;;;4.14;56.66;101109.94;5031444;28;20204;-61